createdAt,value
2022-11-25T00:09:27.076Z,100
2022-11-25T00:19:27.897Z,100
2022-11-25T00:29:28.457Z,100
2022-11-25T00:39:29.448Z,100
2022-11-25T00:49:30.205Z,100
2022-11-25T00:59:30.480Z,100
2022-11-25T01:09:31.416Z,100
2022-11-25T01:19:31.756Z,100
2022-11-25T01:29:32.042Z,100
2022-11-25T01:39:33.253Z,100
2022-11-25T01:49:33.311Z,100
2022-11-25T01:59:33.760Z,100
2022-11-25T02:09:34.150Z,100
2022-11-25T02:19:34.868Z,100
2022-11-25T02:29:35.469Z,99
2022-11-25T02:39:36.358Z,99
2022-11-25T02:49:36.577Z,98
2022-11-25T02:59:37.336Z,97
2022-11-25T03:09:38.004Z,97
2022-11-25T03:19:38.654Z,96
2022-11-25T03:29:38.980Z,97
2022-11-25T03:39:39.312Z,97
2022-11-25T03:49:39.777Z,98
2022-11-25T03:59:40.779Z,98
2022-11-25T04:09:41.077Z,99
2022-11-25T04:19:41.844Z,100
2022-11-25T04:29:42.521Z,100
2022-11-25T04:39:42.854Z,100
2022-11-25T04:49:43.879Z,100
2022-11-25T04:59:44.183Z,100
2022-11-25T05:09:44.918Z,100
2022-11-25T05:19:45.327Z,100
2022-11-25T05:29:45.750Z,100
2022-11-25T05:39:46.543Z,100
2022-11-25T05:49:47.631Z,100
2022-11-25T05:59:47.996Z,100
2022-11-25T06:09:48.634Z,100
2022-11-25T06:19:48.803Z,100
2022-11-25T06:29:49.192Z,100
2022-11-25T06:39:49.434Z,100
2022-11-25T06:49:49.633Z,100
2022-11-25T06:59:50.350Z,100
2022-11-25T07:09:51.343Z,100
2022-11-25T07:19:51.818Z,100
2022-11-25T07:30:10.571Z,100
2022-11-25T07:39:52.863Z,100
2022-11-25T07:59:53.638Z,100
2022-11-25T08:09:54.254Z,100
2022-11-25T08:19:54.494Z,100
2022-11-25T08:29:55.445Z,100
2022-11-25T08:39:56.811Z,100
2022-11-25T08:49:57.148Z,100
2022-11-25T08:59:57.828Z,100
2022-11-25T09:09:58.909Z,100
2022-11-25T09:19:59.649Z,100
2022-11-25T09:30:00.015Z,100
2022-11-25T09:40:00.661Z,99
2022-11-25T09:50:01.314Z,98
2022-11-25T10:00:01.549Z,96
2022-11-25T10:10:01.963Z,94
2022-11-25T10:20:02.512Z,94
2022-11-25T10:30:03.558Z,94
2022-11-25T10:40:04.304Z,92
2022-11-25T10:50:05.103Z,90
2022-11-25T11:00:05.594Z,89
2022-11-25T11:10:06.343Z,89
2022-11-25T11:20:06.539Z,87
2022-11-25T11:30:07.013Z,87
2022-11-25T11:40:07.274Z,87
2022-11-25T11:50:07.605Z,85
2022-11-25T12:00:07.798Z,84
2022-11-25T12:10:08.861Z,84
2022-11-25T12:30:09.630Z,85
2022-11-25T12:40:10.597Z,84
2022-11-25T12:50:11.547Z,85
2022-11-25T13:00:39.719Z,86
2022-11-25T13:10:12.428Z,86
2022-11-25T13:20:12.917Z,86
2022-11-25T13:30:13.277Z,86
2022-11-25T13:40:14.051Z,87
2022-11-25T13:50:18.971Z,87
2022-11-25T14:00:15.857Z,87
2022-11-25T14:10:16.205Z,87
2022-11-25T14:20:17.006Z,87
2022-11-25T14:30:17.983Z,88
2022-11-25T14:40:18.532Z,88
2022-11-25T14:50:34.049Z,88
2022-11-25T15:00:20.018Z,88
2022-11-25T15:10:20.856Z,89
2022-11-25T15:20:21.860Z,89
2022-11-25T15:30:22.736Z,89
2022-11-25T15:40:23.165Z,89
2022-11-25T16:00:25.036Z,89
2022-11-25T16:10:25.844Z,90
2022-11-25T16:20:26.651Z,91
2022-11-25T16:30:27.403Z,92
2022-11-25T16:40:28.037Z,92
2022-11-25T16:50:28.907Z,93
2022-11-25T17:00:29.583Z,94
2022-11-25T17:10:29.957Z,94
2022-11-25T17:20:30.766Z,95
2022-11-25T17:30:31.306Z,95
2022-11-25T17:40:31.550Z,96
2022-11-25T17:50:32.144Z,95
2022-11-25T18:00:32.402Z,95
2022-11-25T18:10:32.881Z,95
2022-11-25T18:20:33.933Z,96
2022-11-25T18:30:34.390Z,96
2022-11-25T18:40:34.858Z,96
2022-11-25T18:50:35.527Z,96
2022-11-25T19:00:36.052Z,96
2022-11-25T19:10:36.647Z,96
2022-11-25T19:20:37.696Z,97
2022-11-25T19:30:37.850Z,97
2022-11-25T19:40:39.525Z,97
2022-11-25T19:50:39.414Z,97
2022-11-25T20:00:40.233Z,98
2022-11-25T20:10:40.670Z,98
2022-11-25T20:30:41.851Z,99
2022-11-25T20:40:42.167Z,99
2022-11-25T20:50:42.800Z,99
2022-11-25T21:10:43.914Z,99
2022-11-25T21:20:44.168Z,100
2022-11-25T21:30:45.007Z,100
2022-11-25T21:40:45.396Z,100
2022-11-25T21:50:46.367Z,100
2022-11-25T22:00:47.388Z,100
2022-11-25T22:10:48.254Z,100
2022-11-25T22:20:53.205Z,100
2022-11-25T22:30:50.341Z,100
2022-11-25T22:40:51.161Z,100
2022-11-25T22:50:51.901Z,100
2022-11-25T23:00:52.615Z,100
2022-11-25T23:10:53.578Z,100
2022-11-25T23:20:53.723Z,100
2022-11-25T23:30:54.150Z,100
2022-11-25T23:40:55.072Z,100
2022-11-25T23:50:55.277Z,100
2022-11-25T23:51:17.199Z,100
